sensor_id;sensor_type;location;lat;lon;timestamp;P1;durP1;ratioP1;P2;durP2;ratioP2
66609;SDS011;53468;48.276;14.416;2022-09-28T06:31:28;7.40;;;1.85;;
66609;SDS011;53468;48.276;14.416;2022-09-28T06:37:29;3.88;;;1.73;;
66609;SDS011;53468;48.276;14.416;2022-09-28T08:14:35;2.70;;;0.45;;
66609;SDS011;53468;48.276;14.416;2022-09-28T08:20:41;1.63;;;0.43;;
66609;SDS011;53468;48.276;14.416;2022-09-28T08:26:33;0.45;;;0.30;;
66609;SDS011;53468;48.276;14.416;2022-09-28T08:32:07;1.10;;;0.47;;
66609;SDS011;53468;48.276;14.416;2022-09-28T08:37:48;0.85;;;0.50;;
66609;SDS011;53468;48.276;14.416;2022-09-28T08:43:35;1.05;;;0.50;;
66609;SDS011;53468;48.276;14.416;2022-09-28T08:49:23;1.20;;;0.73;;
66609;SDS011;53468;48.276;14.416;2022-09-28T08:55:01;2.40;;;0.68;;
66609;SDS011;53468;48.276;14.416;2022-09-28T09:00:44;1.75;;;0.50;;
66609;SDS011;53468;48.276;14.416;2022-09-28T09:06:20;1.55;;;0.50;;
66609;SDS011;53468;48.276;14.416;2022-09-28T09:12:01;1.95;;;0.47;;
66609;SDS011;53468;48.276;14.416;2022-09-28T09:17:48;4.18;;;0.60;;
66609;SDS011;53468;48.276;14.416;2022-09-28T09:23:34;2.05;;;0.70;;
66609;SDS011;53468;48.276;14.416;2022-09-28T09:29:15;1.23;;;0.63;;
66609;SDS011;53468;48.276;14.416;2022-09-28T09:35:11;1.23;;;0.65;;
66609;SDS011;53468;48.276;14.416;2022-09-28T09:40:58;1.60;;;0.68;;
66609;SDS011;53468;48.276;14.416;2022-09-28T09:46:39;1.10;;;0.60;;
66609;SDS011;53468;48.276;14.416;2022-09-28T09:52:20;1.73;;;0.70;;
66609;SDS011;53468;48.276;14.416;2022-09-28T09:57:57;2.63;;;0.50;;
66609;SDS011;53468;48.276;14.416;2022-09-28T10:03:40;0.90;;;0.32;;
66609;SDS011;53468;48.276;14.416;2022-09-28T10:09:18;1.55;;;0.63;;
66609;SDS011;53468;48.276;14.416;2022-09-28T10:14:54;1.40;;;0.40;;
66609;SDS011;53468;48.276;14.416;2022-09-28T10:20:27;1.63;;;0.50;;
66609;SDS011;53468;48.276;14.416;2022-09-28T10:26:12;1.15;;;0.50;;
66609;SDS011;53468;48.276;14.416;2022-09-28T10:31:53;5.15;;;0.68;;
66609;SDS011;53468;48.276;14.416;2022-09-28T10:37:26;1.00;;;0.60;;
66609;SDS011;53468;48.276;14.416;2022-09-28T10:43:01;1.55;;;0.80;;
66609;SDS011;53468;48.276;14.416;2022-09-28T10:48:44;2.20;;;1.27;;
66609;SDS011;53468;48.276;14.416;2022-09-28T10:54:20;6.40;;;1.73;;
66609;SDS011;53468;48.276;14.416;2022-09-28T10:59:55;8.43;;;1.67;;
66609;SDS011;53468;48.276;14.416;2022-09-28T11:05:28;2.80;;;1.20;;
66609;SDS011;53468;48.276;14.416;2022-09-28T11:11:02;1.10;;;0.68;;
66609;SDS011;53468;48.276;14.416;2022-09-28T11:16:38;1.15;;;0.82;;
66609;SDS011;53468;48.276;14.416;2022-09-28T11:22:18;2.55;;;0.70;;
66609;SDS011;53468;48.276;14.416;2022-09-28T11:27:59;1.63;;;0.60;;
66609;SDS011;53468;48.276;14.416;2022-09-28T11:33:35;0.83;;;0.57;;
66609;SDS011;53468;48.276;14.416;2022-09-28T11:39:10;2.00;;;0.80;;
66609;SDS011;53468;48.276;14.416;2022-09-28T11:44:47;2.92;;;0.57;;
66609;SDS011;53468;48.276;14.416;2022-09-28T11:50:28;3.03;;;0.73;;
66609;SDS011;53468;48.276;14.416;2022-09-28T11:56:08;1.52;;;0.80;;
66609;SDS011;53468;48.276;14.416;2022-09-28T12:01:50;1.98;;;1.10;;
66609;SDS011;53468;48.276;14.416;2022-09-28T12:07:30;8.07;;;1.65;;
66609;SDS011;53468;48.276;14.416;2022-09-28T12:13:08;4.32;;;1.33;;
66609;SDS011;53468;48.276;14.416;2022-09-28T12:18:48;3.95;;;1.05;;
66609;SDS011;53468;48.276;14.416;2022-09-28T12:24:25;1.73;;;0.50;;
66609;SDS011;53468;48.276;14.416;2022-09-28T12:30:02;1.17;;;0.57;;
66609;SDS011;53468;48.276;14.416;2022-09-28T12:35:39;1.38;;;0.40;;
66609;SDS011;53468;48.276;14.416;2022-09-28T12:41:27;0.60;;;0.30;;
66609;SDS011;53468;48.276;14.416;2022-09-28T12:47:22;0.90;;;0.40;;
66609;SDS011;53468;48.276;14.416;2022-09-28T12:53:19;4.03;;;0.95;;
66609;SDS011;53468;48.276;14.416;2022-09-28T12:59:24;1.02;;;0.50;;
66609;SDS011;53468;48.276;14.416;2022-09-28T13:05:04;1.17;;;0.50;;
66609;SDS011;53468;48.276;14.416;2022-09-28T13:10:48;1.15;;;0.55;;
66609;SDS011;53468;48.276;14.416;2022-09-28T13:16:34;1.30;;;0.35;;
66609;SDS011;53468;48.276;14.416;2022-09-28T13:22:18;2.22;;;0.80;;
66609;SDS011;53468;48.276;14.416;2022-09-28T13:27:59;3.15;;;0.90;;
66609;SDS011;53468;48.276;14.416;2022-09-28T13:33:36;5.28;;;1.60;;
66609;SDS011;53468;48.276;14.416;2022-09-28T13:45:10;1.63;;;0.47;;
66609;SDS011;53468;48.276;14.416;2022-09-28T13:51:19;2.97;;;0.68;;
66609;SDS011;53468;48.276;14.416;2022-09-28T13:57:08;1.70;;;0.73;;
66609;SDS011;53468;48.276;14.416;2022-09-28T14:02:52;4.03;;;1.10;;
66609;SDS011;53468;48.276;14.416;2022-09-28T14:08:34;0.97;;;0.50;;
66609;SDS011;53468;48.276;14.416;2022-09-28T14:14:30;1.80;;;0.40;;
66609;SDS011;53468;48.276;14.416;2022-09-28T14:20:18;2.30;;;0.52;;
66609;SDS011;53468;48.276;14.416;2022-09-28T14:26:04;3.13;;;0.50;;
66609;SDS011;53468;48.276;14.416;2022-09-28T14:31:56;2.92;;;0.65;;
66609;SDS011;53468;48.276;14.416;2022-09-28T14:37:37;3.73;;;0.80;;
66609;SDS011;53468;48.276;14.416;2022-09-28T14:49:52;1.23;;;0.68;;
66609;SDS011;53468;48.276;14.416;2022-09-28T14:55:41;4.55;;;0.75;;
66609;SDS011;53468;48.276;14.416;2022-09-28T15:01:21;2.45;;;0.43;;
66609;SDS011;53468;48.276;14.416;2022-09-28T15:06:57;2.85;;;0.80;;
66609;SDS011;53468;48.276;14.416;2022-09-28T15:19:32;2.55;;;0.30;;
66609;SDS011;53468;48.276;14.416;2022-09-28T15:25:31;2.05;;;0.70;;
66609;SDS011;53468;48.276;14.416;2022-09-28T15:31:05;2.30;;;0.50;;
66609;SDS011;53468;48.276;14.416;2022-09-28T15:36:51;0.93;;;0.50;;
66609;SDS011;53468;48.276;14.416;2022-09-28T15:42:26;2.13;;;0.55;;
66609;SDS011;53468;48.276;14.416;2022-09-28T15:54:11;1.52;;;0.80;;
66609;SDS011;53468;48.276;14.416;2022-09-28T15:59:52;6.85;;;2.10;;
66609;SDS011;53468;48.276;14.416;2022-09-28T16:05:34;5.85;;;1.67;;
66609;SDS011;53468;48.276;14.416;2022-09-28T16:11:15;4.15;;;1.90;;
66609;SDS011;53468;48.276;14.416;2022-09-28T16:16:53;5.50;;;1.60;;
66609;SDS011;53468;48.276;14.416;2022-09-28T16:22:30;3.75;;;1.30;;
66609;SDS011;53468;48.276;14.416;2022-09-28T16:28:11;5.60;;;1.60;;
66609;SDS011;53468;48.276;14.416;2022-09-28T16:34:14;3.80;;;1.20;;
66609;SDS011;53468;48.276;14.416;2022-09-28T16:39:50;6.68;;;1.02;;
66609;SDS011;53468;48.276;14.416;2022-09-28T16:45:24;3.35;;;1.05;;
66609;SDS011;53468;48.276;14.416;2022-09-28T16:50:58;7.28;;;2.13;;
66609;SDS011;53468;48.276;14.416;2022-09-28T16:56:32;4.97;;;1.48;;
66609;SDS011;53468;48.276;14.416;2022-09-28T17:02:18;2.83;;;1.63;;
66609;SDS011;53468;48.276;14.416;2022-09-28T17:07:58;11.48;;;2.60;;
66609;SDS011;53468;48.276;14.416;2022-09-28T17:13:32;4.28;;;2.30;;
66609;SDS011;53468;48.276;14.416;2022-09-28T17:19:15;3.22;;;2.13;;
66609;SDS011;53468;48.276;14.416;2022-09-28T17:24:51;8.05;;;2.30;;
